Time;durP1;ratioP1;P1;durP2;ratioP2;P2;SDS_P1;SDS_P2;PMS_P1;PMS_P2;Temp;Humidity;BMP_temperature;BMP_pressure;BME280_temperature;BME280_humidity;BME280_pressure;Samples;Min_cycle;Max_cycle;Signal;HPM_P1;HPM_P2
2021/11/27 00:00:41;;;;;;;101.53;49.15;;;;;;;2.26;74.17;98100.58;2090365;84;29153;-55
2021/11/27 00:03:45;;;;;;;109.07;50.92;;;;;;;2.26;74.18;98103.67;2062361;84;27623;-53
2021/11/27 00:06:47;;;;;;;102.85;49.77;;;;;;;2.27;74.20;98104.06;2101498;83;29134;-58
2021/11/27 00:09:48;;;;;;;105.10;51.45;;;;;;;2.28;74.20;98101.36;2100035;84;32225;-64
2021/11/27 00:12:51;;;;;;;109.65;52.65;;;;;;;2.30;74.29;98105.23;2073172;84;32787;-62
2021/11/27 00:15:53;;;;;;;102.30;50.75;;;;;;;2.32;74.29;98103.36;2094648;84;30110;-55
2021/11/27 00:18:56;;;;;;;96.25;48.08;;;;;;;2.33;74.32;98100.24;2087041;84;27710;-52
2021/11/27 00:21:58;;;;;;;101.20;51.18;;;;;;;2.33;74.33;98099.79;2099555;83;29544;-55
2021/11/27 00:25:00;;;;;;;100.67;49.23;;;;;;;2.33;74.35;98092.31;2076747;83;31095;-53
2021/11/27 00:28:02;;;;;;;103.55;49.10;;;;;;;2.35;74.39;98097.92;2076664;84;33359;-50
2021/11/27 00:31:12;;;;;;;100.67;48.83;;;;;;;2.37;74.43;98097.83;2064833;84;30560;-54
2021/11/27 00:34:15;;;;;;;99.65;49.98;;;;;;;2.38;74.49;98090.30;2078934;83;28276;-68
2021/11/27 00:37:17;;;;;;;103.58;50.33;;;;;;;2.40;74.51;98086.63;2087183;84;28876;-69
2021/11/27 00:40:19;;;;;;;96.35;49.48;;;;;;;2.40;74.46;98085.80;2080299;84;31147;-70
2021/11/27 00:43:21;;;;;;;95.17;48.15;;;;;;;2.41;74.41;98092.78;2076286;83;32885;-66
2021/11/27 00:46:24;;;;;;;106.67;50.67;;;;;;;2.40;74.39;98088.44;2090403;83;29774;-70
2021/11/27 00:49:26;;;;;;;105.90;51.10;;;;;;;2.37;74.29;98076.70;2070806;83;27749;-70
2021/11/27 00:52:27;;;;;;;109.90;51.55;;;;;;;2.33;74.23;98071.17;2065689;84;29172;-66
2021/11/27 00:55:31;;;;;;;103.32;49.25;;;;;;;2.27;74.28;98075.00;2079879;84;31833;-58
2021/11/27 00:58:32;;;;;;;114.95;54.08;;;;;;;2.21;74.34;98074.85;2082953;84;33894;-54
2021/11/27 01:01:35;;;;;;;111.60;52.17;;;;;;;2.19;74.40;98071.43;2086718;84;29296;-58
2021/11/27 01:04:36;;;;;;;109.67;52.10;;;;;;;2.16;74.41;98072.91;2086138;83;27791;-49
2021/11/27 01:07:41;;;;;;;104.35;51.70;;;;;;;2.16;74.43;98086.59;2124941;83;29357;-65
2021/11/27 01:10:51;;;;;;;109.50;50.83;;;;;;;2.13;74.47;98081.02;2107514;83;31488;-64
2021/11/27 01:13:58;;;;;;;109.27;50.78;;;;;;;2.12;74.60;98076.66;2091641;84;33047;-65
2021/11/27 01:17:04;;;;;;;118.97;51.10;;;;;;;2.12;74.63;98080.14;2078755;84;30280;-58
2021/11/27 01:20:10;;;;;;;106.37;48.85;;;;;;;2.12;74.66;98081.94;2091088;83;27597;-65
2021/11/27 01:23:12;;;;;;;99.62;47.33;;;;;;;2.10;74.65;98087.77;2054354;85;28642;-56
2021/11/27 01:26:14;;;;;;;99.13;48.85;;;;;;;2.07;74.66;98080.83;2096793;84;31638;-53
2021/11/27 01:29:15;;;;;;;102.78;49.20;;;;;;;2.10;74.85;98090.41;2074257;84;34163;-70
2021/11/27 01:32:17;;;;;;;97.02;46.75;;;;;;;2.10;74.80;98082.48;2082575;84;29411;-68
2021/11/27 01:35:19;;;;;;;102.10;47.85;;;;;;;2.10;74.81;98076.72;2088338;83;27789;-71
2021/11/27 01:38:22;;;;;;;115.77;47.88;;;;;;;2.10;74.81;98076.72;2069857;84;28773;-53
2021/11/27 01:41:24;;;;;;;96.78;47.25;;;;;;;2.10;74.81;98078.52;2069645;85;31956;-70
2021/11/27 01:44:26;;;;;;;108.50;49.23;;;;;;;2.11;74.92;98085.52;2078474;85;34105;-71
2021/11/27 01:47:28;;;;;;;102.72;49.13;;;;;;;2.11;74.91;98080.23;2061689;85;29459;-73
2021/11/27 01:50:35;;;;;;;97.10;48.23;;;;;;;2.11;74.89;98083.71;2084290;85;27655;-74
2021/11/27 01:53:41;;;;;;;104.53;50.75;;;;;;;2.12;74.99;98084.10;2072714;85;28698;-74
2021/11/27 01:56:48;;;;;;;105.97;51.68;;;;;;;2.13;74.97;98076.56;2066336;85;31936;-70
2021/11/27 01:59:50;;;;;;;117.20;53.63;;;;;;;2.13;74.97;98078.37;2079101;85;33833;-70
2021/11/27 02:02:53;;;;;;;109.95;51.25;;;;;;;2.15;75.01;98076.95;2052194;85;29459;-72
2021/11/27 02:05:55;;;;;;;114.42;51.37;;;;;;;2.18;75.08;98079.45;2085963;85;27937;-70
2021/11/27 02:08:59;;;;;;;120.15;53.52;;;;;;;2.19;75.10;98075.39;2048530;85;29129;-69
2021/11/27 02:12:04;;;;;;;112.50;55.08;;;;;;;2.22;75.15;98073.08;2052576;85;31939;-67
2021/11/27 02:15:07;;;;;;;128.97;60.28;;;;;;;2.25;75.13;98072.90;2054827;85;32961;-69
2021/11/27 02:18:10;;;;;;;112.37;56.33;;;;;;;2.26;75.07;98068.00;2080884;85;30085;-52
2021/11/27 02:21:16;;;;;;;115.57;51.75;;;;;;;2.26;75.11;98069.33;2082036;85;27647;-71
2021/11/27 02:24:21;;;;;;;116.77;52.08;;;;;;;2.27;75.12;98069.27;2085199;85;28760;-72
2021/11/27 02:27:23;;;;;;;115.03;53.52;;;;;;;2.29;75.12;98074.45;2077561;83;32023;-61
2021/11/27 02:30:25;;;;;;;110.22;50.98;;;;;;;2.30;75.14;98073.52;2078539;85;34333;-68
2021/11/27 02:33:27;;;;;;;113.72;53.20;;;;;;;2.31;75.12;98073.91;2060796;85;29664;-71
2021/11/27 02:36:30;;;;;;;110.85;50.40;;;;;;;2.32;75.18;98070.34;2074254;85;27671;-65
2021/11/27 02:39:33;;;;;;;101.97;50.78;;;;;;;2.34;75.22;98074.20;2068099;84;29943;-69
2021/11/27 02:42:36;;;;;;;113.15;51.02;;;;;;;2.36;75.25;98069.25;2068750;84;31121;-71
2021/11/27 02:45:38;;;;;;;113.30;52.43;;;;;;;2.39;75.34;98062.95;2070510;84;33745;-72
2021/11/27 02:48:40;;;;;;;111.12;52.13;;;;;;;2.41;75.32;98065.04;2067810;84;30643;-55
2021/11/27 02:51:42;;;;;;;114.05;54.35;;;;;;;2.43;75.30;98060.05;2081431;84;28304;-56
2021/11/27 02:54:44;;;;;;;105.35;51.60;;;;;;;2.44;75.31;98062.24;2075717;84;29900;-62
2021/11/27 02:57:46;;;;;;;113.65;54.77;;;;;;;2.48;75.33;98057.64;2084208;84;31876;-55
2021/11/27 03:00:50;;;;;;;110.80;53.95;;;;;;;2.46;75.22;98055.09;2085646;84;33717;-62
2021/11/27 03:03:52;;;;;;;109.50;53.55;;;;;;;2.48;75.27;98044.42;2085221;84;29506;-56
2021/11/27 03:06:54;;;;;;;107.70;51.68;;;;;;;2.44;75.12;98052.99;2084817;83;27728;-59
2021/11/27 03:09:56;;;;;;;113.03;54.85;;;;;;;2.43;75.20;98048.16;2127847;83;30106;-56
2021/11/27 03:12:58;;;;;;;113.28;53.58;;;;;;;2.43;75.29;98053.93;2092607;84;31547;-49
2021/11/27 03:16:00;;;;;;;107.75;52.30;;;;;;;2.45;75.36;98063.08;2096306;84;34077;-55
2021/11/27 03:19:02;;;;;;;102.78;50.50;;;;;;;2.47;75.43;98062.53;2095111;83;29707;-54
2021/11/27 03:22:05;;;;;;;103.25;52.33;;;;;;;2.48;75.50;98057.64;2091098;84;27968;-51
2021/11/27 03:25:10;;;;;;;105.47;50.80;;;;;;;2.48;75.35;98052.36;2078950;84;29893;-57
2021/11/27 03:28:11;;;;;;;;;;;;;;;2.48;75.43;98049.71;2081473;83;31077;-54
2021/11/27 03:31:14;;;;;;;110.35;50.50;;;;;;;2.47;75.35;98048.00;2063934;84;34188;-59
2021/11/27 03:34:16;;;;;;;106.40;49.75;;;;;;;2.47;75.42;98036.98;2089239;84;29331;-58
2021/11/27 03:37:19;;;;;;;112.22;52.73;;;;;;;2.46;75.32;98039.23;2091931;82;27686;-67
2021/11/27 03:40:21;;;;;;;107.25;52.38;;;;;;;2.47;75.41;98034.80;2100437;84;29599;-60
2021/11/27 03:43:26;;;;;;;108.15;52.70;;;;;;;2.43;75.39;98031.47;2112271;84;31899;-58
2021/11/27 03:46:28;;;;;;;103.12;50.67;;;;;;;2.41;75.43;98039.45;2118280;82;33823;-59
2021/11/27 03:49:31;;;;;;;111.90;55.92;;;;;;;2.41;75.52;98043.42;2107979;84;30451;-57
2021/11/27 03:52:33;;;;;;;113.42;55.05;;;;;;;2.45;75.58;98054.70;2111500;84;27564;-60
2021/11/27 03:55:35;;;;;;;119.33;55.55;;;;;;;2.39;75.35;98055.89;2108055;82;29948;-62
2021/11/27 03:58:37;;;;;;;110.37;52.93;;;;;;;2.36;75.42;98057.36;2109787;84;31418;-54
2021/11/27 04:01:39;;;;;;;117.10;55.75;;;;;;;2.39;75.61;98061.62;2086124;84;33971;-61
2021/11/27 04:04:42;;;;;;;113.65;52.85;;;;;;;2.42;75.68;98060.14;2099837;84;30442;-55
2021/11/27 04:07:44;;;;;;;107.63;53.78;;;;;;;2.43;75.55;98069.30;2089927;82;27889;-55
2021/11/27 04:10:47;;;;;;;103.12;51.88;;;;;;;2.45;75.59;98069.23;2099012;84;29934;-50
2021/11/27 04:13:48;;;;;;;98.55;49.67;;;;;;;2.45;75.58;98065.27;2102555;84;31067;-50
2021/11/27 04:16:51;;;;;;;98.33;51.48;;;;;;;2.47;75.67;98066.50;2077275;84;32191;-55
2021/11/27 04:19:54;;;;;;;101.70;48.75;;;;;;;2.48;75.69;98061.61;2107317;82;29477;-53
2021/11/27 04:22:57;;;;;;;91.00;49.08;;;;;;;2.49;75.69;98065.48;2085833;82;27659;-54
2021/11/27 04:25:59;;;;;;;92.78;48.33;;;;;;;2.50;75.64;98069.83;2078581;82;29834;-56
2021/11/27 04:29:01;;;;;;;94.83;47.90;;;;;;;2.50;75.66;98065.02;2091392;84;31091;-53
2021/11/27 04:32:04;;;;;;;96.12;48.33;;;;;;;2.50;75.68;98063.70;2111638;84;32919;-56
2021/11/27 04:35:07;;;;;;;85.67;47.85;;;;;;;2.51;75.70;98062.77;2107431;82;29376;-60
2021/11/27 04:38:09;;;;;;;91.60;47.08;;;;;;;2.50;75.62;98057.09;2089932;84;27743;-72
2021/11/27 04:41:11;;;;;;;84.47;45.90;;;;;;;2.50;75.69;98053.97;2079015;84;29278;-52
2021/11/27 04:44:12;;;;;;;87.35;46.35;;;;;;;2.49;75.68;98058.03;2075484;84;31163;-56
2021/11/27 04:47:15;;;;;;;86.97;45.67;;;;;;;2.46;75.67;98057.73;2093935;84;32926;-54
2021/11/27 04:50:18;;;;;;;88.55;46.60;;;;;;;2.46;75.72;98053.77;2091554;83;30214;-68
2021/11/27 04:53:20;;;;;;;97.17;50.78;;;;;;;2.47;75.73;98059.45;2095351;84;27716;-62
2021/11/27 04:56:22;;;;;;;94.47;48.85;;;;;;;2.48;75.82;98050.58;2062905;84;29656;-71
2021/11/27 04:59:24;;;;;;;85.38;46.00;;;;;;;2.50;75.79;98052.65;2082937;84;31090;-70
2021/11/27 05:02:25;;;;;;;80.47;44.48;;;;;;;2.51;75.82;98052.20;2092000;83;33168;-71
2021/11/27 05:05:27;;;;;;;84.60;44.85;;;;;;;2.51;75.80;98059.64;2095562;84;29159;-73
2021/11/27 05:08:29;;;;;;;81.45;42.55;;;;;;;2.53;75.88;98061.74;2092783;84;27636;-70
2021/11/27 05:11:30;;;;;;;82.10;44.30;;;;;;;2.54;75.85;98062.12;2088538;83;28729;-68
2021/11/27 05:14:32;;;;;;;82.60;43.48;;;;;;;2.57;75.85;98071.67;2101148;83;31091;-59
2021/11/27 05:17:34;;;;;;;79.45;43.17;;;;;;;2.57;75.75;98071.67;2082014;84;33414;-73
2021/11/27 05:20:35;;;;;;;87.50;46.15;;;;;;;2.56;75.75;98071.31;2089361;84;30453;-70
2021/11/27 05:23:37;;;;;;;83.85;44.93;;;;;;;2.57;75.69;98077.83;2062718;83;28005;-59
2021/11/27 05:26:39;;;;;;;80.03;43.80;;;;;;;2.60;75.78;98077.29;2083626;83;28459;-66
2021/11/27 05:29:42;;;;;;;81.63;42.38;;;;;;;2.60;75.59;98077.29;2082169;84;30306;-71
2021/11/27 05:36:03;;;;;;;78.55;42.88;;;;;;;2.62;75.72;98078.06;1990952;89;29480;-70
2021/11/27 05:39:06;;;;;;;67.35;38.92;;;;;;;2.63;75.77;98076.65;2003948;87;28271;-52
2021/11/27 05:42:10;;;;;;;87.25;47.43;;;;;;;2.62;75.68;98071.45;1989923;88;28919;-54
2021/11/27 05:45:13;;;;;;;73.78;40.85;;;;;;;2.64;75.70;98074.88;1984982;88;31114;-50
2021/11/27 05:48:14;;;;;;;75.92;39.00;;;;;;;2.64;75.75;98082.33;1988977;89;32997;-51
2021/11/27 05:51:17;;;;;;;76.25;44.25;;;;;;;2.66;75.75;98079.14;1974744;89;29946;-70
2021/11/27 05:54:18;;;;;;;76.00;40.08;;;;;;;2.67;75.68;98072.05;1992889;88;27800;-72
2021/11/27 05:57:20;;;;;;;81.70;44.93;;;;;;;2.68;75.76;98080.36;1992083;89;30864;-50
2021/11/27 06:00:22;;;;;;;85.12;42.48;;;;;;;2.67;75.65;98074.23;1992216;89;31711;-54
2021/11/27 06:03:24;;;;;;;80.10;42.70;;;;;;;2.68;75.75;98077.72;1987763;88;32816;-63
2021/11/27 06:06:26;;;;;;;81.53;43.33;;;;;;;2.66;75.65;98081.78;1991785;89;29481;-72
2021/11/27 06:09:28;;;;;;;89.10;48.55;;;;;;;2.67;75.74;98086.58;1992916;89;27736;-71
2021/11/27 06:12:30;;;;;;;82.60;45.25;;;;;;;2.68;75.70;98092.26;2035283;84;29058;-72
2021/11/27 06:15:32;;;;;;;81.25;44.35;;;;;;;2.67;75.69;98095.38;2103266;84;30932;-59
2021/11/27 06:18:36;;;;;;;81.97;44.88;;;;;;;2.67;75.75;98100.67;2098447;84;32840;-62
2021/11/27 06:21:40;;;;;;;75.57;43.38;;;;;;;2.69;75.75;98097.48;2083324;84;27699;-67
2021/11/27 06:24:41;;;;;;;72.80;40.65;;;;;;;2.70;75.77;98095.67;2076564;84;27693;-66
2021/11/27 06:27:43;;;;;;;75.17;39.27;;;;;;;2.70;75.71;98095.67;2106041;84;30156;-71
2021/11/27 06:30:47;;;;;;;70.57;39.55;;;;;;;2.62;75.51;98102.69;2072663;84;28371;-62
2021/11/27 06:33:49;;;;;;;79.65;41.77;;;;;;;2.63;75.62;98108.37;2091500;84;33461;-57
2021/11/27 06:36:51;;;;;;;69.25;39.48;;;;;;;2.62;75.67;98116.39;2080014;84;29391;-54
2021/11/27 06:39:53;;;;;;;82.85;44.38;;;;;;;2.61;75.65;98120.80;2084396;83;27500;-55
2021/11/27 06:43:01;;;;;;;78.52;41.88;;;;;;;2.61;75.68;98115.52;2121152;82;27660;-61
2021/11/27 06:46:01;;;;;;;82.35;44.15;;;;;;;2.62;75.66;98124.32;2099981;83;30857;-66
2021/11/27 06:49:03;;;;;;;76.37;42.08;;;;;;;2.54;75.41;98127.36;2112370;83;33388;-59
2021/11/27 06:52:04;;;;;;;74.30;41.02;;;;;;;2.49;75.56;98129.39;2089140;83;29771;-62
2021/11/27 06:55:07;;;;;;;73.80;42.10;;;;;;;2.43;75.54;98134.52;2088040;83;28287;-57
2021/11/27 06:58:09;;;;;;;78.00;42.08;;;;;;;2.41;75.71;98127.14;2133098;82;28691;-56
2021/11/27 07:01:10;;;;;;;73.25;40.75;;;;;;;2.41;75.67;98133.74;2096717;83;30836;-65
2021/11/27 07:04:13;;;;;;;73.90;41.63;;;;;;;2.39;75.65;98139.57;2091192;83;34162;-63
2021/11/27 07:07:15;;;;;;;72.45;42.15;;;;;;;2.35;75.70;98147.26;2087954;83;29506;-69
2021/11/27 07:10:17;;;;;;;69.00;38.30;;;;;;;2.39;75.85;98158.06;2098361;82;27755;-63
2021/11/27 07:13:19;;;;;;;68.37;40.28;;;;;;;2.39;75.70;98164.67;2115135;83;28589;-53
2021/11/27 07:16:21;;;;;;;66.53;38.30;;;;;;;2.39;75.73;98173.92;2122063;83;31847;-55
2021/11/27 07:19:22;;;;;;;66.90;38.50;;;;;;;2.38;75.72;98177.05;2120824;83;32931;-62
2021/11/27 07:22:25;;;;;;;69.05;37.75;;;;;;;2.37;75.64;98174.46;2111616;83;29664;-53
2021/11/27 07:25:30;;;;;;;63.23;36.08;;;;;;;2.33;75.59;98180.37;2114224;82;27741;-61
2021/11/27 07:28:31;;;;;;;63.63;35.08;;;;;;;2.30;75.59;98175.72;2122878;82;28705;-66
2021/11/27 07:31:35;;;;;;;59.63;34.25;;;;;;;2.30;75.55;98189.77;2127690;83;32145;-57
2021/11/27 07:34:36;;;;;;;59.45;33.42;;;;;;;2.35;75.64;98182.93;2119449;83;34048;-55
2021/11/27 07:37:38;;;;;;;56.08;33.53;;;;;;;2.43;75.69;98184.25;2112741;82;29497;-51
2021/11/27 07:40:40;;;;;;;64.55;36.13;;;;;;;2.52;75.76;98192.66;2118892;82;27937;-66
2021/11/27 07:43:42;;;;;;;57.13;33.20;;;;;;;2.64;75.77;98188.55;2109876;83;29086;-52
2021/11/27 07:46:53;;;;;;;58.83;32.70;;;;;;;2.75;75.63;98191.48;2070508;84;31884;-60
2021/11/27 07:49:48;;;;;;;60.50;34.50;;;;;;;2.81;75.58;98191.62;2021078;88;33001;-57
2021/11/27 07:52:50;;;;;;;56.58;31.82;;;;;;;2.81;75.59;98186.33;2056717;86;30526;-62
2021/11/27 07:55:53;;;;;;;55.03;31.77;;;;;;;2.82;75.49;98195.50;2050451;85;28176;-62
2021/11/27 07:58:55;;;;;;;55.90;31.05;;;;;;;2.83;75.49;98192.40;2101054;84;28836;-60
2021/11/27 08:01:57;;;;;;;51.68;31.48;;;;;;;2.85;75.44;98202.44;2100592;84;32256;-53
2021/11/27 08:04:59;;;;;;;58.00;33.23;;;;;;;2.87;75.45;98202.73;2091773;84;33459;-62
2021/11/27 08:08:01;;;;;;;61.08;32.95;;;;;;;2.89;75.42;98200.87;2084403;84;30623;-57
2021/11/27 08:11:04;;;;;;;53.87;31.57;;;;;;;2.92;75.31;98208.25;2100476;84;28083;-65
2021/11/27 08:14:06;;;;;;;59.10;31.82;;;;;;;2.95;75.30;98212.06;2101048;84;29310;-73
2021/11/27 08:17:07;;;;;;;62.30;33.78;;;;;;;2.98;75.45;98217.20;2071019;84;32243;-77
2021/11/27 08:20:11;;;;;;;61.42;33.58;;;;;;;3.01;75.42;98215.24;2068273;84;33241;-77
2021/11/27 08:23:13;;;;;;;54.83;31.02;;;;;;;3.07;75.29;98229.94;2066232;84;30127;-78
2021/11/27 08:26:16;;;;;;;62.83;35.25;;;;;;;3.12;75.22;98234.97;2087741;84;28229;-72
2021/11/27 08:29:18;;;;;;;53.80;31.50;;;;;;;3.17;75.37;98242.21;2072510;84;29911;-74
2021/11/27 08:32:20;;;;;;;55.15;31.90;;;;;;;3.23;75.19;98247.16;2068440;84;31048;-55
2021/11/27 08:35:22;;;;;;;58.35;30.75;;;;;;;3.31;75.28;98244.98;2100280;84;33800;-63
2021/11/27 08:38:23;;;;;;;65.50;33.63;;;;;;;3.39;75.20;98240.59;2100951;82;29725;-55
2021/11/27 08:41:25;;;;;;;55.55;32.58;;;;;;;3.46;74.98;98245.09;2125263;83;27582;-60
2021/11/27 08:44:27;;;;;;;60.78;32.25;;;;;;;3.50;74.91;98246.64;2069033;85;29241;-52
2021/11/27 08:47:29;;;;;;;89.50;50.30;;;;;;;3.54;75.04;98242.90;2107820;84;32154;-71
2021/11/27 08:50:31;;;;;;;58.23;31.97;;;;;;;3.58;74.84;98243.09;2113024;82;33015;-60
2021/11/27 08:53:33;;;;;;;53.00;29.15;;;;;;;3.61;74.92;98234.16;2110605;84;29368;-71
2021/11/27 08:56:35;;;;;;;57.67;31.82;;;;;;;3.65;74.80;98231.24;2106517;84;28102;-75
2021/11/27 08:59:36;;;;;;;52.83;29.90;;;;;;;3.70;74.75;98227.50;2109211;82;28766;-74
2021/11/27 09:02:40;;;;;;;61.37;34.80;;;;;;;3.73;74.55;98221.55;2104450;82;31061;-68
2021/11/27 09:05:43;;;;;;;61.85;35.92;;;;;;;3.77;74.35;98222.23;2094692;84;34142;-65
2021/11/27 09:08:45;;;;;;;54.73;30.45;;;;;;;3.82;74.38;98212.70;2109075;84;29334;-68
2021/11/27 09:11:49;;;;;;;54.77;30.43;;;;;;;3.87;74.26;98214.17;2112865;84;27845;-71
2021/11/27 09:14:52;;;;;;;58.90;31.27;;;;;;;3.84;74.01;98215.66;2092323;82;28685;-67
2021/11/27 09:17:53;;;;;;;57.40;30.25;;;;;;;3.84;73.95;98209.05;2093169;84;31966;-73
2021/11/27 09:20:57;;;;;;;65.80;34.67;;;;;;;3.86;73.87;98216.44;2112896;83;33312;-61
2021/11/27 09:23:59;;;;;;;53.68;28.35;;;;;;;3.88;73.82;98220.31;2098374;84;30567;-73
2021/11/27 09:27:01;;;;;;;52.73;30.50;;;;;;;3.91;73.53;98220.14;2078802;84;27677;-69
2021/11/27 09:30:07;;;;;;;50.35;29.25;;;;;;;3.91;73.65;98221.47;2090985;84;29094;-70
2021/11/27 09:33:09;;;;;;;50.48;28.87;;;;;;;3.90;73.08;98225.05;2109218;84;30463;-74
2021/11/27 09:36:14;;;;;;;52.93;30.37;;;;;;;3.84;73.08;98225.39;2106699;82;32983;-82
2021/11/27 09:39:15;;;;;;;54.08;29.27;;;;;;;3.85;73.35;98230.62;2076658;85;30587;-77
2021/11/27 09:42:18;;;;;;;57.55;30.65;;;;;;;3.88;73.18;98224.28;2077437;84;27713;-65
2021/11/27 09:45:26;;;;;;;53.30;30.88;;;;;;;3.87;73.17;98218.15;2085390;84;28530;-81
2021/11/27 09:48:28;;;;;;;51.00;29.07;;;;;;;3.87;73.33;98227.88;2116090;82;31872;-74
2021/11/27 09:51:32;;;;;;;58.42;31.80;;;;;;;3.87;72.82;98229.20;2112748;84;33434;-67
2021/11/27 09:54:35;;;;;;;57.80;32.15;;;;;;;3.84;73.12;98232.87;2105472;84;29356;-74
2021/11/27 09:57:37;;;;;;;56.60;32.53;;;;;;;3.87;72.98;98229.20;2110772;84;27800;-71
2021/11/27 10:00:39;;;;;;;57.08;31.55;;;;;;;3.88;72.76;98224.28;2113000;84;29045;-71
2021/11/27 10:03:48;;;;;;;54.63;29.37;;;;;;;3.87;72.88;98219.92;2141994;82;30811;-73
2021/11/27 10:06:46;;;;;;;55.65;30.35;;;;;;;3.86;72.76;98225.70;2083269;84;33494;-72
2021/11/27 10:09:51;;;;;;;53.45;31.62;;;;;;;3.82;72.47;98221.97;2078004;85;29165;-72
2021/11/27 10:12:53;;;;;;;57.25;32.15;;;;;;;3.80;72.70;98220.28;2093157;83;27955;-66
2021/11/27 10:15:55;;;;;;;80.35;46.37;;;;;;;3.83;72.79;98221.03;2106902;82;29973;-70
2021/11/27 10:19:11;;;;;;;77.70;46.20;;;;;;;3.83;72.40;98226.33;2109455;83;31078;-72
2021/11/27 10:22:17;;;;;;;56.30;31.05;;;;;;;3.83;72.61;98224.55;2093959;83;34155;-73
2021/11/27 10:25:41;;;;;;;66.57;36.83;;;;;;;3.79;72.03;98226.97;2108326;82;29341;-72
2021/11/27 10:28:44;;;;;;;60.48;36.13;;;;;;;3.75;72.52;98224.11;2115300;82;27602;-61
2021/11/27 10:31:49;;;;;;;60.10;31.70;;;;;;;3.72;72.29;98224.30;2097748;83;29864;-73
2021/11/27 10:34:55;;;;;;;56.60;31.45;;;;;;;3.67;72.37;98224.53;2098227;83;31031;-82
2021/11/27 10:37:57;;;;;;;64.12;34.25;;;;;;;3.65;72.56;98221.98;2107021;83;32968;-78
2021/11/27 10:41:00;;;;;;;63.13;35.23;;;;;;;3.65;72.48;98222.43;2095313;83;30622;-70
2021/11/27 10:44:06;;;;;;;57.27;32.58;;;;;;;3.62;72.62;98223.46;2086542;83;27570;-85
2021/11/27 10:47:17;;;;;;;58.63;32.55;;;;;;;3.63;72.63;98216.39;2091135;83;29528;-83
2021/11/27 10:50:23;;;;;;;61.68;33.20;;;;;;;3.61;72.64;98220.42;2091518;83;31241;-70
2021/11/27 10:53:33;;;;;;;63.52;33.10;;;;;;;3.56;72.47;98211.88;2090250;83;32974;-66
2021/11/27 10:56:44;;;;;;;53.63;30.25;;;;;;;3.56;72.63;98211.88;2093528;83;29702;-62
2021/11/27 10:59:46;;;;;;;52.85;29.30;;;;;;;3.56;72.34;98210.55;2084124;83;27717;-72
2021/11/27 11:02:56;;;;;;;51.75;29.55;;;;;;;3.56;72.26;98214.52;2092378;83;28708;-80
2021/11/27 11:06:02;;;;;;;65.15;35.95;;;;;;;3.53;72.17;98208.55;2082579;83;32267;-71
2021/11/27 11:09:05;;;;;;;56.25;33.92;;;;;;;3.55;72.33;98215.48;2062044;84;32960;-59
2021/11/27 11:12:07;;;;;;;48.58;25.37;;;;;;;3.58;72.08;98221.08;2083385;83;30166;-66
2021/11/27 11:15:17;;;;;;;45.23;25.88;;;;;;;3.62;71.94;98219.49;2062296;83;27708;-59
2021/11/27 11:18:25;;;;;;;47.13;27.98;;;;;;;3.64;72.15;98218.94;2061457;86;28656;-68
2021/11/27 11:21:26;;;;;;;52.10;29.35;;;;;;;3.66;71.99;98222.81;2068332;83;31880;-60
2021/11/27 11:24:28;;;;;;;55.88;31.00;;;;;;;3.69;72.10;98223.98;2088035;83;34295;-64
2021/11/27 11:27:40;;;;;;;49.58;29.15;;;;;;;3.71;72.00;98212.00;2065115;84;30632;-68
2021/11/27 11:30:47;;;;;;;54.53;29.63;;;;;;;3.74;71.95;98211.80;2060936;86;27626;-62
2021/11/27 11:33:56;;;;;;;51.58;29.45;;;;;;;3.74;71.76;98208.70;2080063;84;28741;-62
2021/11/27 11:36:58;;;;;;;53.10;30.12;;;;;;;3.76;71.65;98205.95;2096053;83;31195;-70
2021/11/27 11:40:00;;;;;;;45.25;27.42;;;;;;;3.79;71.73;98210.63;2093518;84;34093;-65
2021/11/27 11:43:02;;;;;;;48.58;28.70;;;;;;;3.83;71.71;98208.66;2085832;85;30506;-65
2021/11/27 11:46:06;;;;;;;48.52;26.55;;;;;;;3.87;71.62;98204.03;2085831;85;27654;-66
2021/11/27 11:49:08;;;;;;;49.42;26.90;;;;;;;3.90;71.46;98199.89;2080076;85;28846;-61
2021/11/27 11:52:22;;;;;;;47.40;26.45;;;;;;;3.93;71.22;98205.02;2058321;85;31514;-57
2021/11/27 11:55:24;;;;;;;43.60;24.50;;;;;;;3.95;71.15;98205.31;2016312;88;33365;-67
2021/11/27 11:58:40;;;;;;;46.88;25.90;;;;;;;3.97;70.78;98193.33;2016514;88;29653;-67
2021/11/27 12:01:41;;;;;;;39.05;22.85;;;;;;;3.99;70.86;98186.11;1997964;87;27767;-56
2021/11/27 12:05:12;;;;;;;37.85;22.55;;;;;;;4.02;70.73;98189.08;1968970;90;28758;-72
2021/11/27 12:08:13;;;;;;;47.03;24.35;;;;;;;4.05;70.54;98191.56;1967811;88;31874;-70
2021/11/27 12:11:52;;;;;;;39.75;22.30;;;;;;;4.05;70.50;98183.61;1981844;89;34203;-72
2021/11/27 12:14:57;;;;;;;42.78;22.90;;;;;;;4.07;70.22;98177.27;1999258;89;28819;-68
2021/11/27 12:18:18;;;;;;;43.70;23.73;;;;;;;4.08;70.20;98190.03;1999372;89;27713;-72
2021/11/27 12:21:21;;;;;;;48.50;23.30;;;;;;;4.10;69.96;98189.48;1996200;89;52839;-66
2021/11/27 12:24:24;;;;;;;46.45;24.25;;;;;;;4.08;69.47;98184.28;1998178;89;32132;-69
2021/11/27 12:27:26;;;;;;;42.93;26.07;;;;;;;4.08;69.92;98190.03;1999140;89;33413;-70
2021/11/27 12:30:32;;;;;;;46.20;25.65;;;;;;;4.09;69.80;98199.69;1990092;89;30333;-70
2021/11/27 12:33:57;;;;;;;43.80;26.50;;;;;;;4.07;69.88;98203.77;2017383;87;27664;-72
2021/11/27 12:36:59;;;;;;;38.20;22.27;;;;;;;4.06;70.19;98196.76;2033799;87;30068;-70
2021/11/27 12:40:01;;;;;;;42.58;23.92;;;;;;;4.03;69.79;98196.92;2042189;85;32032;-71
2021/11/27 12:43:16;;;;;;;43.33;24.32;;;;;;;4.02;69.68;98191.24;2074452;84;34171;-69
2021/11/27 12:46:31;;;;;;;46.80;25.10;;;;;;;3.97;69.81;98188.02;2076243;84;29445;-73
2021/11/27 12:49:39;;;;;;;41.92;23.98;;;;;;;3.94;70.16;98181.08;2074511;85;27682;-72
2021/11/27 12:52:43;;;;;;;45.80;23.85;;;;;;;3.93;70.11;98183.83;2074652;84;29490;-73
2021/11/27 12:55:44;;;;;;;39.73;21.25;;;;;;;3.92;70.05;98191.39;2080627;84;31934;-73
2021/11/27 12:58:46;;;;;;;41.13;24.45;;;;;;;3.90;69.73;98194.59;2109237;84;34193;-72
2021/11/27 13:01:56;;;;;;;40.90;23.35;;;;;;;3.89;70.23;98195.05;2109342;84;30470;-74
2021/11/27 13:04:55;;;;;;;42.90;20.65;;;;;;;3.88;70.19;98200.45;2109013;84;27705;-73
2021/11/27 13:07:58;;;;;;;36.73;21.25;;;;;;;3.87;70.18;98196.09;2107158;84;29832;-73
2021/11/27 13:11:09;;;;;;;47.08;22.62;;;;;;;3.86;70.19;98197.89;2075492;84;31716;-69
2021/11/27 13:14:33;;;;;;;40.92;21.85;;;;;;;3.84;70.17;98206.84;2073735;85;34227;-73
2021/11/27 13:17:34;;;;;;;35.50;20.68;;;;;;;3.86;70.34;98208.95;2082017;84;29506;-73
2021/11/27 13:20:53;;;;;;;34.58;19.32;;;;;;;3.86;70.03;98209.81;2076042;84;27659;-68
2021/11/27 13:23:57;;;;;;;35.20;19.32;;;;;;;3.83;69.55;98209.98;2073857;84;28719;-73
2021/11/27 13:26:59;;;;;;;23.07;13.50;;;;;;;3.83;69.75;98213.95;2098603;84;32182;-72
2021/11/27 13:30:09;;;;;;;28.95;17.32;;;;;;;3.82;69.53;98218.86;2106349;84;34245;-71
2021/11/27 13:33:11;;;;;;;33.05;19.87;;;;;;;3.78;69.31;98208.92;2104700;84;30723;-67
2021/11/27 13:36:32;;;;;;;31.10;18.40;;;;;;;3.78;69.38;98210.24;2056465;85;27662;-69
2021/11/27 13:39:34;;;;;;;34.18;18.40;;;;;;;3.77;69.09;98210.31;2103452;84;28650;-72
2021/11/27 13:42:38;;;;;;;34.27;18.50;;;;;;;3.76;69.36;98206.83;2109650;83;31045;-65
2021/11/27 13:45:43;;;;;;;35.60;18.37;;;;;;;3.75;68.84;98202.92;2109892;84;33024;-71
2021/11/27 13:48:45;;;;;;;38.63;20.23;;;;;;;3.74;69.02;98205.18;2108078;84;29715;-70
2021/11/27 13:51:47;;;;;;;32.93;18.10;;;;;;;3.70;69.15;98212.94;2110244;84;27994;-73
2021/11/27 13:54:55;;;;;;;37.50;20.77;;;;;;;3.65;68.81;98210.06;2110060;84;29732;-68
2021/11/27 13:58:02;;;;;;;35.78;19.37;;;;;;;3.63;68.82;98219.04;2109788;84;31762;-66
2021/11/27 14:01:05;;;;;;;31.52;17.55;;;;;;;3.59;68.87;98213.03;2110262;84;34059;-63
2021/11/27 14:04:11;;;;;;;35.43;19.82;;;;;;;3.55;68.77;98211.52;2109913;84;30118;-70
2021/11/27 14:07:16;;;;;;;35.48;19.60;;;;;;;3.51;69.03;98223.20;2110001;84;27706;-71
2021/11/27 14:10:23;;;;;;;44.10;23.60;;;;;;;3.49;69.09;98213.16;2110645;84;28844;-72
2021/11/27 14:13:25;;;;;;;40.35;22.17;;;;;;;3.48;69.37;98208.33;2110222;84;31005;-58
2021/11/27 14:16:27;;;;;;;54.10;31.73;;;;;;;3.47;69.76;98220.33;2088426;84;34157;-69